ZSAM

Xiamen Gaoqi International Airport

Airport
ICAO code
ZSAM
IATA Code
XMN
Summary
ICAO Region
APAC
ICAO Territory
Location

Huli, Fujian

Serving
Xiamen
Elevation
59 ft
Coordinates
24° 32' 21" N , 118° 8' 4" E
KCC
Metar
Observation
ZSAM 091900Z 03002MPS 010V070 CAVOK 17/14 Q1015 NOSIG
Station
Xiamen
Date/Time
2022-12-09 19:00:00
Wind direction
30°
Lowest cloud amount
clouds and visibility OK
Temperature
17°C
Dew point
14°C
Humidity
82%
QNH
1015 hPa
Weather condition
n/a

Description

Xiamen Gaoqi International Airport is the airport serving the city of Xiamen in Fujian Province, China. The airport is located on the north side of Xiamen Island.

Climatology

Humid subtropical climate (Köppen climate classification Cfa.) Hot muggy summers with frequent thunderstorms. Winters are mild and precipitation during this season comes from mid-latitude cyclones. This climate type is quite common on the east coasts of continents.

Airport map

Aerial View

SKYbrary Partners:

Safety knowledge contributed by: